Edwardsville, IL (62025)

8:13 AM CST on December 10, 2016 (GMT -0600)
Nickel Plate Trail | | Change Station

Elev 545 ft 38.81 °N, 89.94 °W | Updated 3 minutes ago

Overcast
Overcast
25.9 °F
Feels Like 26 °F
N
0.0
Wind Variable Wind from North
Gusts 0.0 mph

Today
High -- | Low -- °F
--% Chance of Precip.
Yesterday
High -- | Low -- °F
Precip. -- in
Pressure 30.58 in
Visibility 10.0 miles
Clouds Overcast 7000 ft
Windchill 26 °F
Dew Point 20 °F
Humidity 79%
Rainfall 0.00 in
Snow Depth Not available.
7:07 AM 4:38 PM
Waxing Gibbous, 84% visible
METAR KALN 101348Z 14005KT 10SM OVC070 M04/M08 A3058
Pressure 30.58 in
Visibility 10.0 miles
Clouds Overcast 7000 ft
Windchill 26 °F
Dew Point 20 °F
Humidity 79%
Rainfall 0.00 in
Snow Depth Not available.
7:07 AM 4:38 PM
Waxing Gibbous, 84% visible
METAR KALN 101348Z 14005KT 10SM OVC070 M04/M08 A3058

10-Day Weather Forecast

Almanac

Astronomy

Dec. 10, 2016 Rise Set
Actual Time
Civil Twilight
Nautical Twilight
Astronomical Twilight
Moon
Length of Visible Light
Length of Day
Tomorrow will be .
, % of the Moon is Illuminated

Today's Extremes

State Highs State Lows

Community

WunderPhotos

Upload Photos

1,956,549 photos uploaded!

WunderBlog® & News

Nearby

Air Quality

  Air Quality AQ Index Pollutant
Not available.

Snow Depth

Station Depth Elevation

Earthquake Activity

City Distance Mag. Time & Date
Minimum magnitude displayed is 2.5.

Coastal Water Temperatures

Place Temperature

Stations

Nearby Weather Stations

Station Location Temp. Windchill Dew Point Humidity Wind Precip. Elev Updated Type
                   

Watches & Warnings

There are currently no watches in effect.